createdAt,value
2016-06-18T00:00:09.802Z,76.81
2016-06-18T00:01:09.819Z,76.71
2016-06-18T00:02:09.871Z,76.71
2016-06-18T00:03:09.920Z,76.9
2016-06-18T00:04:09.940Z,76.9
2016-06-18T00:05:09.990Z,76.9
2016-06-18T00:06:10.040Z,77.28
2016-06-18T00:07:10.075Z,76.62
2016-06-18T00:08:10.126Z,77.19
2016-06-18T00:09:10.175Z,77.38
2016-06-18T00:10:10.195Z,77.38
2016-06-18T00:11:10.230Z,77.09
2016-06-18T00:12:10.280Z,77
2016-06-18T00:13:10.315Z,77.48
2016-06-18T00:14:10.365Z,77.09
2016-06-18T00:15:10.400Z,77.38
2016-06-18T00:16:10.465Z,77.19
2016-06-18T00:17:10.485Z,77.19
2016-06-18T00:18:10.503Z,77.38
2016-06-18T00:19:10.554Z,77.09
2016-06-18T00:20:11.245Z,77.48
2016-06-18T00:21:10.639Z,77.28
2016-06-18T00:22:10.675Z,77.19
2016-06-18T00:23:10.709Z,77.86
2016-06-18T00:24:10.760Z,77.57
2016-06-18T00:25:10.794Z,77.57
2016-06-18T00:26:10.844Z,77.28
2016-06-18T00:27:10.879Z,77.34
2016-06-18T00:28:11.570Z,78.05
2016-06-18T00:29:10.949Z,78.05
2016-06-18T00:30:11.030Z,77.86
2016-06-18T00:31:11.033Z,77.63
2016-06-18T00:32:11.069Z,77.67
2016-06-18T00:33:11.118Z,77.44
2016-06-18T00:34:11.153Z,77.44
2016-06-18T00:35:11.203Z,77.63
2016-06-18T00:36:11.301Z,77.44
2016-06-18T00:37:11.273Z,78.01
2016-06-18T00:38:11.323Z,78.01
2016-06-18T00:39:11.358Z,77.82
2016-06-18T00:40:11.393Z,77.63
2016-06-18T00:41:11.474Z,77.92
2016-06-18T00:42:11.509Z,77.53
2016-06-18T00:43:11.529Z,78.2
2016-06-18T00:44:11.547Z,78.11
2016-06-18T00:45:11.597Z,78.11
2016-06-18T00:46:11.632Z,78.3
2016-06-18T00:47:11.682Z,78.58
2016-06-18T00:48:11.732Z,78.87
2016-06-18T00:49:11.752Z,78.3
2016-06-18T00:50:11.802Z,79.06
2016-06-18T00:51:11.836Z,78.78
2016-06-18T00:52:11.872Z,78.58
2016-06-18T00:53:11.953Z,78.39
2016-06-18T00:54:11.956Z,78.87
2016-06-18T00:55:11.992Z,79.25
2016-06-18T00:56:12.073Z,79.35
2016-06-18T00:57:12.077Z,79.25
2016-06-18T00:58:12.111Z,79.25
2016-06-18T00:59:12.162Z,79.54
2016-06-18T01:00:12.196Z,79.44
2016-06-18T01:01:12.231Z,78.49
2016-06-18T01:02:12.266Z,78.78
2016-06-18T01:03:12.316Z,79.54
2016-06-18T01:04:12.382Z,79.44
2016-06-18T01:05:13.041Z,79.44
2016-06-18T01:06:12.436Z,79.35
2016-06-18T01:07:12.470Z,79.25
2016-06-18T01:08:12.521Z,79.44
2016-06-18T01:09:12.555Z,79.16
2016-06-18T01:10:12.605Z,80.02
2016-06-18T01:11:12.656Z,79.73
2016-06-18T01:12:12.707Z,79.73
2016-06-18T01:13:12.726Z,79.83
2016-06-18T01:14:12.792Z,79.73
2016-06-18T01:15:12.795Z,79.93
2016-06-18T01:16:12.845Z,79.64
2016-06-18T01:17:12.880Z,79.64
2016-06-18T01:18:12.930Z,79.73
2016-06-18T01:19:12.965Z,80.4
2016-06-18T01:20:12.984Z,80.4
2016-06-18T01:21:13.035Z,80.3
2016-06-18T01:22:13.100Z,80.4
2016-06-18T01:23:13.103Z,80.88
2016-06-18T01:24:13.155Z,80.11
2016-06-18T01:25:13.188Z,80.69
2016-06-18T01:26:13.224Z,80.59
2016-06-18T01:27:13.275Z,80.88
2016-06-18T01:28:13.309Z,80.88
2016-06-18T01:29:13.343Z,80.79
2016-06-18T01:30:13.425Z,80.69
2016-06-18T01:31:14.117Z,80.98
2016-06-18T01:32:13.463Z,80.79
2016-06-18T01:33:13.514Z,80.88
2016-06-18T01:34:13.564Z,81.26
2016-06-18T01:35:13.614Z,81.36
2016-06-18T01:36:13.648Z,81.26
2016-06-18T01:37:13.668Z,81.74
2016-06-18T01:38:13.734Z,81.36
2016-06-18T01:39:13.753Z,81.74
2016-06-18T01:40:13.788Z,81.36
2016-06-18T01:41:13.869Z,81.16
2016-06-18T01:42:13.873Z,81.41
2016-06-18T01:43:13.939Z,81.16
2016-06-18T01:44:13.958Z,81.26
2016-06-18T01:45:13.993Z,81.36
2016-06-18T01:46:14.028Z,81.65
2016-06-18T01:47:14.062Z,81.93
2016-06-18T01:48:14.112Z,81.84
2016-06-18T01:49:14.147Z,81.74
2016-06-18T01:50:14.198Z,82.03
2016-06-18T01:51:14.247Z,81.89
2016-06-18T01:52:14.267Z,81.84
2016-06-18T01:53:14.318Z,82.22
2016-06-18T01:54:14.355Z,82.31
2016-06-18T01:55:14.392Z,82.03
2016-06-18T01:56:14.429Z,82.22
2016-06-18T01:57:14.483Z,82.03
2016-06-18T01:58:15.178Z,82.12
2016-06-18T01:59:14.558Z,82.22
2016-06-18T02:00:14.593Z,81.93
2016-06-18T02:01:14.661Z,82.41
2016-06-18T02:02:14.697Z,82.46
2016-06-18T02:03:14.716Z,82.6
2016-06-18T02:04:14.799Z,82.6
2016-06-18T02:05:14.818Z,82.7
2016-06-18T02:06:14.853Z,82.46
2016-06-18T02:07:14.904Z,82.41
2016-06-18T02:08:14.955Z,82.51
2016-06-18T02:09:14.975Z,82.37
2016-06-18T02:10:15.009Z,82.28
2016-06-18T02:11:15.044Z,82.22
2016-06-18T02:12:15.095Z,82.7
2016-06-18T02:13:15.130Z,82.37
2016-06-18T02:14:15.165Z,82.28
2016-06-18T02:15:15.200Z,82.28
2016-06-18T02:16:15.281Z,83.33
2016-06-18T02:17:15.285Z,83.13
2016-06-18T02:18:15.335Z,83.23
2016-06-18T02:19:15.369Z,83.13
2016-06-18T02:20:15.404Z,83.04
2016-06-18T02:21:16.095Z,83.04
2016-06-18T02:22:15.505Z,83.04
2016-06-18T02:23:15.524Z,83.13
2016-06-18T02:24:16.262Z,82.75
2016-06-18T02:25:15.625Z,83.13
2016-06-18T02:26:15.644Z,82.94
2016-06-18T02:27:15.678Z,83.04
2016-06-18T02:28:15.728Z,82.75
2016-06-18T02:29:15.779Z,82.65
2016-06-18T02:30:15.799Z,82.75
2016-06-18T02:31:15.833Z,82.89
2016-06-18T02:32:15.884Z,83.04
2016-06-18T02:33:15.949Z,82.94
2016-06-18T02:34:15.968Z,82.75
2016-06-18T02:35:16.003Z,83.33
2016-06-18T02:36:16.070Z,83.13
2016-06-18T02:37:16.103Z,83.13
2016-06-18T02:38:16.123Z,83.42
2016-06-18T02:39:16.174Z,83.61
2016-06-18T02:40:16.240Z,83.37
2016-06-18T02:41:16.258Z,83.7
2016-06-18T02:42:16.293Z,83.51
2016-06-18T02:43:16.327Z,83.61
2016-06-18T02:44:16.362Z,82.94
2016-06-18T02:45:16.398Z,83.33
2016-06-18T02:46:16.462Z,83.04
2016-06-18T02:47:16.482Z,83.42
2016-06-18T02:48:16.517Z,83.7
2016-06-18T02:49:16.568Z,83.13
2016-06-18T02:50:16.586Z,83.7
2016-06-18T02:51:16.636Z,84.09
2016-06-18T02:52:16.687Z,83.7
2016-06-18T02:53:16.722Z,83.99
2016-06-18T02:54:16.756Z,83.8
2016-06-18T02:55:16.791Z,83.7
2016-06-18T02:56:17.513Z,83.9
2016-06-18T02:57:16.923Z,83.8
2016-06-18T02:58:16.911Z,83.7
2016-06-18T02:59:16.961Z,83.51
2016-06-18T03:00:17.058Z,83.61
2016-06-18T03:01:17.031Z,83.7
2016-06-18T03:02:17.081Z,83.61
2016-06-18T03:03:17.116Z,83.51
2016-06-18T03:04:17.150Z,83.8
2016-06-18T03:05:17.216Z,83.99
2016-06-18T03:06:17.548Z,84.28
2016-06-18T03:07:17.583Z,83.51
2016-06-18T03:08:17.336Z,83.9
2016-06-18T03:09:17.355Z,84.09
2016-06-18T03:10:17.390Z,84.09
2016-06-18T03:11:17.440Z,83.8
2016-06-18T03:12:17.491Z,83.9
2016-06-18T03:13:17.509Z,84.38
2016-06-18T03:14:17.559Z,83.8
2016-06-18T03:15:17.594Z,84.47
2016-06-18T03:16:17.630Z,84.47
2016-06-18T03:17:17.664Z,84.19
2016-06-18T03:18:17.715Z,84.28
2016-06-18T03:19:17.749Z,84.28
2016-06-18T03:20:17.783Z,84.09
2016-06-18T03:21:17.819Z,84.09
2016-06-18T03:22:17.885Z,84.28
2016-06-18T03:23:17.903Z,84.19
2016-06-18T03:24:17.985Z,84.28
2016-06-18T03:25:17.989Z,84.09
2016-06-18T03:26:18.039Z,84.09
2016-06-18T03:27:18.073Z,84.28
2016-06-18T03:28:18.108Z,84.32
2016-06-18T03:29:18.142Z,84.38
2016-06-18T03:30:18.193Z,84.19
2016-06-18T03:31:18.229Z,84.28
2016-06-18T03:32:18.262Z,83.9
2016-06-18T03:33:18.313Z,83.9
2016-06-18T03:34:18.348Z,84.28
2016-06-18T03:35:18.383Z,84.13
2016-06-18T03:36:18.432Z,83.9
2016-06-18T03:37:18.467Z,84.03
2016-06-18T03:38:18.503Z,84.13
2016-06-18T03:39:18.552Z,83.99
2016-06-18T03:40:18.588Z,83.94
2016-06-18T03:41:18.684Z,84.03
2016-06-18T03:42:18.656Z,84.23
2016-06-18T03:43:18.707Z,84.03
2016-06-18T03:44:18.742Z,84.03
2016-06-18T03:45:18.792Z,84.13
2016-06-18T03:46:18.826Z,84.23
2016-06-18T03:47:18.862Z,84.13
2016-06-18T03:48:18.927Z,84.19
2016-06-18T03:49:18.978Z,84.09
2016-06-18T03:50:18.981Z,83.94
2016-06-18T03:51:19.673Z,83.56
2016-06-18T03:52:19.082Z,83.46
2016-06-18T03:53:19.101Z,83.94
2016-06-18T03:54:19.151Z,83.56
2016-06-18T03:55:19.201Z,84.32
2016-06-18T03:56:19.221Z,83.84
2016-06-18T03:57:19.255Z,84.23
2016-06-18T03:58:19.306Z,83.56
2016-06-18T03:59:19.340Z,84.13
2016-06-18T04:00:19.391Z,84.13
2016-06-18T04:01:19.425Z,84.23
2016-06-18T04:02:19.476Z,84.23
2016-06-18T04:03:19.495Z,84.23
2016-06-18T04:04:19.546Z,84.32
2016-06-18T04:05:19.596Z,83.84
2016-06-18T04:06:19.614Z,83.75
2016-06-18T04:07:19.665Z,83.75
2016-06-18T04:08:19.700Z,83.75
2016-06-18T04:09:19.735Z,83.84
2016-06-18T04:10:19.771Z,83.84
2016-06-18T04:11:19.828Z,83.75
2016-06-18T04:12:19.900Z,83.46
2016-06-18T04:13:19.926Z,82.98
2016-06-18T04:14:19.965Z,83.27
2016-06-18T04:15:20.021Z,82.98
2016-06-18T04:16:20.105Z,83.46
2016-06-18T04:17:20.111Z,82.98
2016-06-18T04:18:20.147Z,82.98
2016-06-18T04:19:20.216Z,83.17
2016-06-18T04:20:20.221Z,83.17
2016-06-18T04:21:20.273Z,82.89
2016-06-18T04:22:20.307Z,83.27
2016-06-18T04:23:20.375Z,83.22
2016-06-18T04:24:20.394Z,83.17
2016-06-18T04:25:20.429Z,82.83
2016-06-18T04:26:20.465Z,82.93
2016-06-18T04:27:20.516Z,83.03
2016-06-18T04:28:20.566Z,83.22
2016-06-18T04:29:20.602Z,83.12
2016-06-18T04:30:20.637Z,83.12
2016-06-18T04:31:20.671Z,83.22
2016-06-18T04:32:20.705Z,83.4
2016-06-18T04:33:20.756Z,83.4
2016-06-18T04:34:20.806Z,82.26
2016-06-18T04:35:20.888Z,82.45
2016-06-18T04:36:20.877Z,82.07
2016-06-18T04:37:20.910Z,82.35
2016-06-18T04:38:20.961Z,81.78
2016-06-18T04:39:21.012Z,81.4
2016-06-18T04:40:21.030Z,81.97
2016-06-18T04:41:21.080Z,81.21
2016-06-18T04:42:21.147Z,81.21
2016-06-18T04:43:21.181Z,81.3
2016-06-18T04:44:21.200Z,81.78
2016-06-18T04:45:21.236Z,81.3
2016-06-18T04:46:21.301Z,81.34
2016-06-18T04:47:21.320Z,81.02
2016-06-18T04:48:21.371Z,81.11
2016-06-18T04:49:21.405Z,81.02
2016-06-18T04:50:21.440Z,81.3
2016-06-18T04:51:21.474Z,81.25
2016-06-18T04:52:21.510Z,81.05
2016-06-18T04:53:21.560Z,81.05
2016-06-18T04:54:21.641Z,81.05
2016-06-18T04:55:21.629Z,80.77
2016-06-18T04:56:21.679Z,81.05
2016-06-18T04:57:21.714Z,80.87
2016-06-18T04:58:21.780Z,80.77
2016-06-18T04:59:21.799Z,80.48
2016-06-18T05:00:21.834Z,80.58
2016-06-18T05:01:21.883Z,80.67
2016-06-18T05:02:21.934Z,80.38
2016-06-18T05:03:21.970Z,81.15
2016-06-18T05:04:22.004Z,80.58
2016-06-18T05:05:22.055Z,80
2016-06-18T05:06:22.089Z,79.62
2016-06-18T05:07:22.123Z,79.72
2016-06-18T05:08:22.174Z,79.43
2016-06-18T05:09:22.225Z,79.81
2016-06-18T05:10:22.243Z,80.19
2016-06-18T05:11:22.293Z,79.43
2016-06-18T05:12:22.360Z,79.14
2016-06-18T05:13:22.364Z,79.37
2016-06-18T05:14:22.397Z,79.57
2016-06-18T05:15:22.448Z,79.37
2016-06-18T05:16:22.498Z,78.57
2016-06-18T05:17:22.518Z,78.7
2016-06-18T05:18:22.568Z,79.47
2016-06-18T05:19:22.602Z,79.47
2016-06-18T05:20:22.668Z,79.57
2016-06-18T05:21:22.703Z,78.99
2016-06-18T05:22:22.738Z,78.89
2016-06-18T05:23:22.789Z,78.7
2016-06-18T05:24:22.808Z,78.8
2016-06-18T05:25:22.857Z,78.7
2016-06-18T05:26:22.892Z,78.51
2016-06-18T05:27:22.974Z,78.7
2016-06-18T05:28:22.977Z,78.99
2016-06-18T05:29:23.012Z,78.99
2016-06-18T05:30:23.063Z,78.42
2016-06-18T05:31:23.097Z,78.42
2016-06-18T05:32:23.148Z,78.51
2016-06-18T05:33:23.199Z,78.42
2016-06-18T05:34:23.216Z,78.51
2016-06-18T05:35:23.267Z,78.13
2016-06-18T05:36:23.302Z,78.51
2016-06-18T05:37:23.337Z,78.32
2016-06-18T05:38:23.402Z,78.03
2016-06-18T05:39:23.422Z,78.22
2016-06-18T05:40:23.473Z,78.03
2016-06-18T05:41:23.507Z,78.51
2016-06-18T05:42:23.558Z,78.27
2016-06-18T05:43:23.592Z,78.17
2016-06-18T05:44:23.626Z,78.27
2016-06-18T05:45:23.661Z,78.13
2016-06-18T05:46:23.711Z,77.78
2016-06-18T05:47:23.747Z,77.97
2016-06-18T05:48:24.437Z,77.97
2016-06-18T05:49:23.832Z,77.88
2016-06-18T05:50:23.866Z,77.78
2016-06-18T05:51:23.917Z,77.88
2016-06-18T05:52:23.998Z,77.69
2016-06-18T05:53:24.657Z,77.31
2016-06-18T05:54:24.036Z,76.64
2016-06-18T05:55:24.070Z,77.31
2016-06-18T05:56:24.121Z,76.82
2016-06-18T05:57:24.172Z,76.15
2016-06-18T05:58:24.206Z,76.44
2016-06-18T05:59:24.241Z,75.68
2016-06-18T06:00:24.292Z,75.77
2016-06-18T06:01:24.326Z,76.25
2016-06-18T06:02:24.361Z,75.87
2016-06-18T06:03:24.411Z,76.06
2016-06-18T06:04:24.461Z,76.06
2016-06-18T06:05:24.480Z,76.64
2016-06-18T06:06:24.547Z,76.54
2016-06-18T06:07:24.581Z,76.35
2016-06-18T06:08:24.600Z,76.06
2016-06-18T06:09:24.651Z,75.87
2016-06-18T06:10:24.701Z,76.06
2016-06-18T06:11:24.736Z,75.58
2016-06-18T06:12:24.770Z,75.43
2016-06-18T06:13:24.804Z,75.52
2016-06-18T06:14:24.855Z,75.52
2016-06-18T06:15:24.905Z,76
2016-06-18T06:16:24.940Z,75.04
2016-06-18T06:17:24.991Z,75.81
2016-06-18T06:18:25.057Z,75.43
2016-06-18T06:19:25.060Z,75.52
2016-06-18T06:20:25.095Z,75.43
2016-06-18T06:21:25.176Z,75.71
2016-06-18T06:22:25.179Z,75.71
2016-06-18T06:23:25.230Z,74.85
2016-06-18T06:24:25.264Z,75.04
2016-06-18T06:25:25.300Z,75.23
2016-06-18T06:26:25.350Z,74.37
2016-06-18T06:27:25.386Z,73.99
2016-06-18T06:28:25.437Z,74.18
2016-06-18T06:29:25.487Z,73.65
2016-06-18T06:30:25.524Z,73.13
2016-06-18T06:31:25.559Z,72.74
2016-06-18T06:32:25.610Z,72.45
2016-06-18T06:33:25.645Z,73.32
2016-06-18T06:34:25.679Z,72.45
2016-06-18T06:35:25.730Z,72.64
2016-06-18T06:36:25.781Z,72.97
2016-06-18T06:37:25.815Z,72.55
2016-06-18T06:38:25.865Z,71.98
2016-06-18T06:39:25.885Z,70.92
2016-06-18T06:40:25.936Z,70.38
2016-06-18T06:41:25.971Z,71.05
2016-06-18T06:42:26.020Z,71.25
2016-06-18T06:43:26.055Z,70.86
2016-06-18T06:44:26.089Z,71.53
2016-06-18T06:45:26.140Z,70.48
2016-06-18T06:46:26.175Z,70.19
2016-06-18T06:47:26.256Z,69.04
2016-06-18T06:48:26.275Z,69.04
2016-06-18T06:49:26.295Z,68.75
2016-06-18T06:50:26.346Z,68.08
2016-06-18T06:51:26.427Z,68.66
2016-06-18T06:52:26.446Z,68.95
2016-06-18T06:53:26.464Z,68.95
2016-06-18T06:54:26.515Z,68.95
2016-06-18T06:55:26.550Z,69.04
2016-06-18T06:56:26.584Z,68.85
2016-06-18T06:57:26.635Z,68.95
2016-06-18T06:58:26.685Z,68.56
2016-06-18T06:59:26.719Z,68.37
2016-06-18T07:00:26.755Z,69.04
2016-06-18T07:01:26.805Z,68.37
2016-06-18T07:02:26.840Z,69.04
2016-06-18T07:03:26.906Z,68.95
2016-06-18T07:04:26.924Z,68.66
2016-06-18T07:05:26.975Z,69.07
2016-06-18T07:06:27.072Z,68.4
2016-06-18T07:07:27.075Z,68.12
2016-06-18T07:08:27.095Z,68.21
2016-06-18T07:09:27.145Z,68.69
2016-06-18T07:10:27.179Z,68.5
2016-06-18T07:11:27.214Z,68.59
2016-06-18T07:12:27.265Z,68.4
2016-06-18T07:13:27.300Z,68.4
2016-06-18T07:14:27.350Z,68.4
2016-06-18T07:15:27.384Z,68.3
2016-06-18T07:16:27.435Z,67.92
2016-06-18T07:17:27.469Z,67.63
2016-06-18T07:18:27.504Z,68.02
2016-06-18T07:19:27.555Z,67.73
2016-06-18T07:20:27.590Z,68.02
2016-06-18T07:21:27.670Z,67.76
2016-06-18T07:22:27.690Z,67.54
2016-06-18T07:23:27.724Z,67.73
2016-06-18T07:24:27.759Z,67.57
2016-06-18T07:25:27.825Z,67.38
2016-06-18T07:26:27.845Z,67.47
2016-06-18T07:27:27.895Z,67.09
2016-06-18T07:28:27.929Z,67.47
2016-06-18T07:29:27.964Z,66.9
2016-06-18T07:30:28.014Z,67.19
2016-06-18T07:31:28.049Z,67.29
2016-06-18T07:32:28.100Z,67.09
2016-06-18T07:33:28.150Z,66.9
2016-06-18T07:34:28.185Z,67
2016-06-18T07:35:28.219Z,67.09
2016-06-18T07:36:28.270Z,67.38
2016-06-18T07:37:28.304Z,67.19
2016-06-18T07:38:28.339Z,67.19
2016-06-18T07:39:28.390Z,66.42
2016-06-18T07:40:28.424Z,67.41
2016-06-18T07:41:28.506Z,66.71
2016-06-18T07:42:28.509Z,66.84
2016-06-18T07:43:28.559Z,66.64
2016-06-18T07:44:28.594Z,66.36
2016-06-18T07:45:28.644Z,64.72
2016-06-18T07:46:28.679Z,65.88
2016-06-18T07:47:28.730Z,65.59
2016-06-18T07:48:28.764Z,64.82
2016-06-18T07:49:28.830Z,64.63
2016-06-18T07:50:28.849Z,64.05
2016-06-18T07:51:28.885Z,64.72
2016-06-18T07:52:28.965Z,64.34
2016-06-18T07:53:29.016Z,63.48
2016-06-18T07:54:29.019Z,63.76
2016-06-18T07:55:29.070Z,63.76
2016-06-18T07:56:29.088Z,63.57
2016-06-18T07:57:29.170Z,62.81
2016-06-18T07:58:29.190Z,62.9
2016-06-18T07:59:29.224Z,63.28
2016-06-18T08:00:29.290Z,63.28
2016-06-18T08:01:29.309Z,63.57
2016-06-18T08:02:29.344Z,62.99
2016-06-18T08:03:29.394Z,62.9
2016-06-18T08:04:29.444Z,62.81
2016-06-18T08:05:29.480Z,62.13
2016-06-18T08:06:29.545Z,62.04
2016-06-18T08:07:29.564Z,62.32
2016-06-18T08:08:29.630Z,62.42
2016-06-18T08:09:29.649Z,62.64
2016-06-18T08:10:29.684Z,62.52
2016-06-18T08:11:29.718Z,61.68
2016-06-18T08:12:29.925Z,60.63
2016-06-18T08:13:30.726Z,61.49
2016-06-18T08:14:29.853Z,61.3
2016-06-18T08:15:29.905Z,61.58
2016-06-18T08:16:29.970Z,61.87
2016-06-18T08:17:29.989Z,60.53
2016-06-18T08:18:30.024Z,60.82
2016-06-18T08:19:30.075Z,60.24
2016-06-18T08:20:30.125Z,60.63
2016-06-18T08:21:30.175Z,60.66
2016-06-18T08:22:30.194Z,60.43
2016-06-18T08:23:30.245Z,60.43
2016-06-18T08:24:30.310Z,60.56
2016-06-18T08:25:30.330Z,60.34
2016-06-18T08:26:30.381Z,60.46
2016-06-18T08:27:30.415Z,60.34
2016-06-18T08:28:30.480Z,60.75
2016-06-18T08:29:30.499Z,61.33
2016-06-18T08:30:30.534Z,60.94
2016-06-18T08:31:30.585Z,61.14
2016-06-18T08:32:30.651Z,61.33
2016-06-18T08:33:30.670Z,61.14
2016-06-18T08:34:30.705Z,61.23
2016-06-18T08:35:30.770Z,60.56
2016-06-18T08:36:30.837Z,60.59
2016-06-18T08:37:30.840Z,61.16
2016-06-18T08:38:30.875Z,61.36
2016-06-18T08:39:30.925Z,61.26
2016-06-18T08:40:30.991Z,61.26
2016-06-18T08:41:30.994Z,61.46
2016-06-18T08:42:31.044Z,61.07
2016-06-18T08:43:31.097Z,61.36
2016-06-18T08:47:07.531Z,59.63
2016-06-18T08:47:19.156Z,59.92
2016-06-18T08:47:35.187Z,58.47
2016-06-18T08:48:35.241Z,58.18
2016-06-18T08:49:35.982Z,57.7
2016-06-18T08:50:35.330Z,56.55
2016-06-18T08:51:35.382Z,57.13
2016-06-18T08:52:35.450Z,57.25
2016-06-18T08:53:36.189Z,56.67
2016-06-18T08:54:35.505Z,57.06
2016-06-18T08:55:35.557Z,57.06
2016-06-18T08:56:35.622Z,56.38
2016-06-18T08:57:35.657Z,57.06
2016-06-18T08:58:35.693Z,56.96
2016-06-18T08:59:35.728Z,57.15
2016-06-18T09:00:35.793Z,57.06
2016-06-18T09:01:35.814Z,57.06
2016-06-18T09:02:35.865Z,57.06
2016-06-18T09:03:35.914Z,56.29
2016-06-18T09:04:35.949Z,56.29
2016-06-18T09:05:35.984Z,55.62
2016-06-18T09:06:36.034Z,55.62
2016-06-18T09:07:36.084Z,56.2
2016-06-18T09:08:36.119Z,55.9
2016-06-18T09:09:36.154Z,56.58
2016-06-18T09:10:36.204Z,56.8
2016-06-18T09:11:36.254Z,56.6
2016-06-18T09:12:36.305Z,56.51
2016-06-18T09:13:36.340Z,56.12
2016-06-18T09:14:36.390Z,56.05
2016-06-18T09:15:36.487Z,55.09
2016-06-18T09:16:36.460Z,55.16
2016-06-18T09:17:36.511Z,56.15
2016-06-18T09:20:13.613Z,55
2016-06-18T09:21:13.678Z,54.61
2016-06-18T09:22:13.697Z,54.49
2016-06-18T09:23:13.748Z,54.71
2016-06-18T09:24:13.799Z,54.32
2016-06-18T09:25:13.849Z,54.32
2016-06-18T09:26:13.883Z,54.2
2016-06-18T09:27:13.902Z,54.13
2016-06-18T09:28:14.000Z,54.9
2016-06-18T09:29:13.988Z,55.48
2016-06-18T09:31:14.057Z,53.07
2016-06-18T09:32:14.108Z,52.97
2016-06-18T09:33:14.142Z,53.74
2016-06-18T09:34:14.192Z,53.45
2016-06-18T09:35:14.259Z,52.97
2016-06-18T09:36:14.277Z,52.97
2016-06-18T09:37:14.327Z,53.27
2016-06-18T09:38:14.362Z,53.84
2016-06-18T09:39:14.398Z,53.17
2016-06-18T09:40:14.823Z,52.4
2016-06-18T09:41:14.530Z,52.59
2016-06-18T09:42:14.533Z,52.01
2016-06-18T09:43:14.615Z,52.49
2016-06-18T09:44:14.617Z,52.2
2016-06-18T09:45:14.668Z,52.23
2016-06-18T09:46:14.719Z,52.61
2016-06-18T09:47:14.768Z,52.23
2016-06-18T09:48:14.803Z,52.4
2016-06-18T09:49:14.854Z,52.33
2016-06-18T09:50:15.528Z,52.52
2016-06-18T09:51:14.954Z,52.52
2016-06-18T09:52:14.974Z,52.23
2016-06-18T09:53:15.024Z,52.23
2016-06-18T09:54:15.746Z,52.52
2016-06-18T09:55:15.765Z,52.52
2016-06-18T09:56:15.159Z,52.52
2016-06-18T09:57:15.210Z,51.29
2016-06-18T09:58:15.275Z,51.39
2016-06-18T09:59:15.294Z,51
2016-06-18T10:00:15.329Z,51.39
2016-06-18T10:01:15.395Z,50.45
2016-06-18T10:02:15.430Z,49
2016-06-18T10:03:15.464Z,48.81
2016-06-18T10:04:15.515Z,49.1
2016-06-18T10:05:15.549Z,48.81
2016-06-18T10:06:15.600Z,49.7
2016-06-18T10:07:15.650Z,49.6
2016-06-18T10:08:15.685Z,47.77
2016-06-18T10:09:15.783Z,48.06
2016-06-18T10:10:15.786Z,47.96
2016-06-18T10:11:16.508Z,47.87
2016-06-18T10:12:15.902Z,47.67
2016-06-18T10:13:16.577Z,47.38
2016-06-18T10:14:15.955Z,47
2016-06-18T10:15:16.021Z,47.67
2016-06-18T10:16:16.087Z,47.67
2016-06-18T10:17:16.091Z,47.48
2016-06-18T10:18:16.141Z,47.75
2016-06-18T10:19:16.208Z,47.85
2016-06-18T10:20:16.227Z,48.03
2016-06-18T10:21:16.277Z,47.96
2016-06-18T10:22:16.327Z,48.35
2016-06-18T10:23:16.378Z,48.16
2016-06-18T10:24:16.412Z,47.67
2016-06-18T10:25:16.462Z,47.5
2016-06-18T10:26:16.512Z,47.7
2016-06-18T10:27:16.579Z,46.27
2016-06-18T10:28:16.597Z,45.98
2016-06-18T10:29:16.648Z,46.37
2016-06-18T10:30:16.729Z,46.73
2016-06-18T10:31:16.733Z,46.64
2016-06-18T10:32:16.783Z,46.83
2016-06-18T10:33:16.834Z,46.64
2016-06-18T10:34:16.868Z,46.92
2016-06-18T10:35:16.919Z,47.41
2016-06-18T10:36:16.969Z,47.7
2016-06-18T10:37:17.019Z,47.67
2016-06-18T10:38:17.054Z,47.38
2016-06-18T10:39:17.105Z,47.58
2016-06-18T10:40:17.155Z,47.96
2016-06-18T10:41:17.189Z,48.16
2016-06-18T10:42:17.224Z,48.64
2016-06-18T10:43:17.274Z,51.8
2016-06-18T10:44:17.324Z,54.4
2016-06-18T10:45:17.392Z,55.63
2016-06-18T10:46:17.410Z,57.17
2016-06-18T10:47:18.101Z,58.33
2016-06-18T10:48:17.510Z,58.3
2016-06-18T10:49:17.545Z,59.84
2016-06-18T10:50:17.580Z,59.52
2016-06-18T10:51:17.662Z,60.3
2016-06-18T10:52:17.697Z,60.39
2016-06-18T10:53:17.715Z,60.97
2016-06-18T10:54:17.766Z,61.25
2016-06-18T10:55:17.816Z,61.74
2016-06-18T10:56:17.850Z,61.42
2016-06-18T10:57:17.886Z,62.38
2016-06-18T10:58:17.936Z,62.48
2016-06-18T10:59:18.315Z,63.09
2016-06-18T11:00:18.022Z,63.47
2016-06-18T11:01:18.056Z,63.38
2016-06-18T11:02:18.106Z,63.47
2016-06-18T11:03:18.141Z,63.67
2016-06-18T11:04:18.191Z,63.85
2016-06-18T11:05:18.242Z,63.7
2016-06-18T11:06:18.323Z,64.08
2016-06-18T11:07:18.311Z,63.5
2016-06-18T11:08:18.361Z,63.6
2016-06-18T11:09:18.412Z,64.02
2016-06-18T11:10:18.462Z,63.67
2016-06-18T11:11:18.496Z,63.76
2016-06-18T11:12:18.531Z,63.02
2016-06-18T11:13:18.581Z,63.34
2016-06-18T11:14:18.631Z,62.89
2016-06-18T11:15:18.666Z,63.47
2016-06-18T11:16:18.716Z,62.73
2016-06-18T11:17:18.767Z,62.11
2016-06-18T11:18:18.818Z,60.24
2016-06-18T11:19:18.868Z,58.67
2016-06-18T11:20:18.902Z,58.31
2016-06-18T11:21:18.969Z,56.21
2016-06-18T11:22:19.004Z,55.27
2016-06-18T11:23:19.053Z,54
2016-06-18T11:24:19.105Z,54.75
2016-06-18T11:25:19.152Z,53
2016-06-18T11:26:19.188Z,53.56
2016-06-18T11:27:19.237Z,54.05
2016-06-18T11:28:19.287Z,53.85
2016-06-18T11:29:19.338Z,54.02
2016-06-18T11:30:19.372Z,54.41
2016-06-18T11:31:19.439Z,55.35
2016-06-18T11:32:19.490Z,54.96
2016-06-18T11:33:19.524Z,55.35
2016-06-18T11:34:20.230Z,53.89
2016-06-18T11:41:21.432Z,53.02
2016-06-18T11:42:21.467Z,51.93
2016-06-18T11:43:21.502Z,51.74
2016-06-18T11:44:21.553Z,52.12
2016-06-18T11:45:21.603Z,52.15
2016-06-18T11:46:21.653Z,51.89
2016-06-18T11:47:21.704Z,50.99
2016-06-18T11:48:21.738Z,49.22
2016-06-18T11:49:37.695Z,49.05
2016-06-18T11:50:21.838Z,49.05
2016-06-18T11:51:21.905Z,48.75
2016-06-18T11:52:21.987Z,48.63
2016-06-18T11:53:21.990Z,49.41
2016-06-18T11:54:22.057Z,49.1
2016-06-18T11:55:22.138Z,49.39
2016-06-18T11:56:22.157Z,49.27
2016-06-18T11:57:22.207Z,49.37
2016-06-18T11:58:22.242Z,49.54
2016-06-18T11:59:22.279Z,49.63
2016-06-18T12:00:22.345Z,49.63
2016-06-18T12:01:22.397Z,49.71
2016-06-18T12:02:22.448Z,49.99
2016-06-18T12:03:22.514Z,49.22
2016-06-18T12:04:23.191Z,49
2016-06-18T12:05:22.585Z,49.58
2016-06-18T12:06:22.636Z,49.17
2016-06-18T12:07:22.718Z,48.88
2016-06-18T12:08:22.738Z,49.46
2016-06-18T12:09:22.772Z,49.17
2016-06-18T12:10:22.870Z,49.44
2016-06-18T12:11:22.888Z,49.15
2016-06-18T12:12:22.939Z,49.07
2016-06-18T12:13:22.973Z,49.19
2016-06-18T12:14:23.023Z,47.88
2016-06-18T12:15:23.105Z,46.3
2016-06-18T12:16:23.125Z,44.42
2016-06-18T12:17:23.175Z,43.19
2016-06-18T12:18:23.258Z,42.58
2016-06-18T12:19:23.292Z,41.25
2016-06-18T12:20:23.343Z,40.14
2016-06-18T12:21:23.394Z,39.22
2016-06-18T12:22:23.459Z,38.25
2016-06-18T12:23:23.525Z,36.34
2016-06-18T12:24:23.560Z,35.78
2016-06-18T12:25:23.611Z,35.21
2016-06-18T12:26:23.708Z,34.06
2016-06-18T12:27:23.726Z,33.91
2016-06-18T12:28:23.793Z,32.64
2016-06-18T12:29:23.891Z,31.98
2016-06-18T12:30:23.909Z,31.1
2016-06-18T12:31:23.975Z,30.23
2016-06-18T12:32:24.040Z,28.96
2016-06-18T12:33:24.091Z,28.78
2016-06-18T12:34:24.157Z,27.49
2016-06-18T12:35:24.223Z,26.73
2016-06-18T12:36:24.290Z,25.84
2016-06-18T12:37:24.340Z,25.55
2016-06-18T12:38:24.406Z,24.85
2016-06-18T12:39:24.456Z,24.37
2016-06-18T12:40:24.522Z,23.68
2016-06-18T12:41:24.619Z,23.29
2016-06-18T12:42:24.653Z,23.1
2016-06-18T12:43:24.720Z,22
2016-06-18T12:44:24.818Z,21.72
2016-06-18T12:45:24.852Z,21.03
2016-06-18T12:46:25.574Z,20.94
2016-06-18T12:47:24.968Z,20.25
2016-06-18T12:48:25.034Z,19.46
2016-06-18T12:49:25.100Z,19.46
2016-06-18T12:50:25.166Z,19.16
2016-06-18T12:51:25.217Z,18.97
2016-06-18T12:52:25.283Z,19.17
2016-06-18T12:53:25.365Z,18.87
2016-06-18T12:54:25.415Z,18.18
2016-06-18T12:55:25.482Z,17.39
2016-06-18T12:56:25.579Z,16.89
2016-06-18T12:57:25.630Z,17.09
2016-06-18T12:58:25.680Z,16.09
2016-06-18T12:59:25.761Z,16
2016-06-18T13:00:25.797Z,15.91
2016-06-18T13:01:25.862Z,15.8
2016-06-18T13:02:25.929Z,16.19
2016-06-18T13:03:26.041Z,16
2016-06-18T13:04:26.060Z,16
2016-06-18T13:05:26.126Z,16.3
2016-06-18T13:06:26.192Z,15.7